sensor_id;sensor_type;location;lat;lon;timestamp;pressure;altitude;pressure_sealevel;temperature;humidity
9538;BME280;4807;48.024;11.726;2024-01-30T00:02:00;96341.34;;;-1.86;92.36
9538;BME280;4807;48.024;11.726;2024-01-30T00:05:09;96341.91;;;-1.81;92.56
9538;BME280;4807;48.024;11.726;2024-01-30T00:08:17;96342.66;;;-1.79;91.73
9538;BME280;4807;48.024;11.726;2024-01-30T00:11:26;96340.22;;;-1.82;92.29
9538;BME280;4807;48.024;11.726;2024-01-30T00:14:35;96349.91;;;-1.84;92.22
9538;BME280;4807;48.024;11.726;2024-01-30T00:17:45;96345.88;;;-1.90;92.28
9538;BME280;4807;48.024;11.726;2024-01-30T00:20:54;96348.50;;;-1.90;92.33
9538;BME280;4807;48.024;11.726;2024-01-30T00:24:02;96352.50;;;-1.99;92.50
9538;BME280;4807;48.024;11.726;2024-01-30T00:27:11;96351.25;;;-2.07;92.85
9538;BME280;4807;48.024;11.726;2024-01-30T00:30:20;96348.56;;;-2.06;92.18
9538;BME280;4807;48.024;11.726;2024-01-30T00:33:30;96347.81;;;-2.08;91.60
9538;BME280;4807;48.024;11.726;2024-01-30T00:36:38;96347.94;;;-1.95;91.59
9538;BME280;4807;48.024;11.726;2024-01-30T00:39:47;96346.72;;;-1.89;91.94
9538;BME280;4807;48.024;11.726;2024-01-30T00:42:55;96349.91;;;-1.84;91.55
9538;BME280;4807;48.024;11.726;2024-01-30T00:46:04;96347.13;;;-1.81;91.25
9538;BME280;4807;48.024;11.726;2024-01-30T00:49:13;96343.44;;;-1.93;91.88
9538;BME280;4807;48.024;11.726;2024-01-30T00:52:22;96342.59;;;-1.94;92.60
9538;BME280;4807;48.024;11.726;2024-01-30T00:55:30;96342.81;;;-1.97;92.77
9538;BME280;4807;48.024;11.726;2024-01-30T00:58:38;96343.72;;;-1.98;91.94
9538;BME280;4807;48.024;11.726;2024-01-30T01:01:47;96341.13;;;-1.98;92.63
9538;BME280;4807;48.024;11.726;2024-01-30T01:04:56;96340.44;;;-2.01;92.05
9538;BME280;4807;48.024;11.726;2024-01-30T01:08:05;96338.78;;;-2.02;91.95
9538;BME280;4807;48.024;11.726;2024-01-30T01:11:14;96343.44;;;-1.93;91.56
9538;BME280;4807;48.024;11.726;2024-01-30T01:14:22;96350.09;;;-1.73;90.65
9538;BME280;4807;48.024;11.726;2024-01-30T01:17:30;96342.44;;;-1.90;90.27
9538;BME280;4807;48.024;11.726;2024-01-30T01:20:40;96350.25;;;-2.05;90.88
9538;BME280;4807;48.024;11.726;2024-01-30T01:23:48;96349.03;;;-2.13;91.61
9538;BME280;4807;48.024;11.726;2024-01-30T01:26:56;96351.41;;;-2.24;92.08
9538;BME280;4807;48.024;11.726;2024-01-30T01:30:07;96345.78;;;-2.03;90.55
9538;BME280;4807;48.024;11.726;2024-01-30T01:33:16;96340.31;;;-2.28;91.54
9538;BME280;4807;48.024;11.726;2024-01-30T01:36:26;96343.94;;;-2.31;91.40
9538;BME280;4807;48.024;11.726;2024-01-30T01:39:34;96348.47;;;-2.34;91.58
9538;BME280;4807;48.024;11.726;2024-01-30T01:42:42;96346.81;;;-2.35;92.37
9538;BME280;4807;48.024;11.726;2024-01-30T01:45:51;96342.19;;;-2.30;92.53
9538;BME280;4807;48.024;11.726;2024-01-30T01:49:02;96344.91;;;-2.17;92.43
9538;BME280;4807;48.024;11.726;2024-01-30T01:52:12;96340.72;;;-2.20;91.96
9538;BME280;4807;48.024;11.726;2024-01-30T01:55:21;96339.97;;;-2.22;91.46
9538;BME280;4807;48.024;11.726;2024-01-30T01:58:32;96341.81;;;-2.24;92.37
9538;BME280;4807;48.024;11.726;2024-01-30T02:01:41;96336.03;;;-2.29;92.08
9538;BME280;4807;48.024;11.726;2024-01-30T02:04:50;96343.84;;;-2.29;93.14
9538;BME280;4807;48.024;11.726;2024-01-30T02:08:00;96344.81;;;-2.16;92.75
9538;BME280;4807;48.024;11.726;2024-01-30T02:11:09;96337.47;;;-2.09;92.03
9538;BME280;4807;48.024;11.726;2024-01-30T02:14:18;96341.34;;;-2.16;91.93
9538;BME280;4807;48.024;11.726;2024-01-30T02:17:26;96345.19;;;-2.08;90.64
9538;BME280;4807;48.024;11.726;2024-01-30T02:20:35;96346.03;;;-2.07;90.83
9538;BME280;4807;48.024;11.726;2024-01-30T02:23:47;96340.97;;;-1.95;89.10
9538;BME280;4807;48.024;11.726;2024-01-30T02:26:55;96339.44;;;-1.99;89.18
9538;BME280;4807;48.024;11.726;2024-01-30T02:30:05;96350.66;;;-2.26;90.56
9538;BME280;4807;48.024;11.726;2024-01-30T02:33:13;96343.47;;;-2.37;90.03
9538;BME280;4807;48.024;11.726;2024-01-30T02:36:22;96345.75;;;-2.47;91.56
9538;BME280;4807;48.024;11.726;2024-01-30T02:39:31;96345.19;;;-2.52;91.62
9538;BME280;4807;48.024;11.726;2024-01-30T02:42:39;96346.34;;;-2.57;92.35
9538;BME280;4807;48.024;11.726;2024-01-30T02:45:48;96343.66;;;-2.56;91.48
9538;BME280;4807;48.024;11.726;2024-01-30T02:48:56;96341.97;;;-2.57;91.57
9538;BME280;4807;48.024;11.726;2024-01-30T02:52:05;96341.03;;;-2.40;91.30
9538;BME280;4807;48.024;11.726;2024-01-30T02:55:15;96343.97;;;-2.46;91.30
9538;BME280;4807;48.024;11.726;2024-01-30T02:58:24;96341.97;;;-2.57;91.86
9538;BME280;4807;48.024;11.726;2024-01-30T03:01:43;96336.13;;;-2.60;91.90
9538;BME280;4807;48.024;11.726;2024-01-30T03:04:52;96334.44;;;-2.61;92.16
9538;BME280;4807;48.024;11.726;2024-01-30T03:08:00;96321.81;;;-2.53;91.68
9538;BME280;4807;48.024;11.726;2024-01-30T03:11:10;96334.47;;;-2.47;91.68
9538;BME280;4807;48.024;11.726;2024-01-30T03:14:18;96330.50;;;-2.39;92.29
9538;BME280;4807;48.024;11.726;2024-01-30T03:17:26;96327.53;;;-2.33;91.21
9538;BME280;4807;48.024;11.726;2024-01-30T03:20:36;96330.22;;;-2.34;91.32
9538;BME280;4807;48.024;11.726;2024-01-30T03:23:44;96333.19;;;-2.40;91.66
9538;BME280;4807;48.024;11.726;2024-01-30T03:26:54;96330.88;;;-2.45;91.59
9538;BME280;4807;48.024;11.726;2024-01-30T03:30:03;96329.44;;;-2.50;91.95
9538;BME280;4807;48.024;11.726;2024-01-30T03:33:11;96323.66;;;-2.55;92.57
9538;BME280;4807;48.024;11.726;2024-01-30T03:36:20;96319.34;;;-2.56;91.99
9538;BME280;4807;48.024;11.726;2024-01-30T03:39:28;96322.19;;;-2.45;91.85
9538;BME280;4807;48.024;11.726;2024-01-30T03:42:39;96322.13;;;-2.44;91.28
9538;BME280;4807;48.024;11.726;2024-01-30T03:45:47;96323.13;;;-2.46;91.16
9538;BME280;4807;48.024;11.726;2024-01-30T03:48:55;96315.75;;;-2.54;91.78
9538;BME280;4807;48.024;11.726;2024-01-30T03:52:03;96318.84;;;-2.47;91.82
9538;BME280;4807;48.024;11.726;2024-01-30T03:55:12;96323.69;;;-2.41;90.82
9538;BME280;4807;48.024;11.726;2024-01-30T03:58:22;96312.31;;;-2.40;91.16
9538;BME280;4807;48.024;11.726;2024-01-30T04:01:35;96317.41;;;-2.23;90.99
9538;BME280;4807;48.024;11.726;2024-01-30T04:04:43;96318.63;;;-2.28;91.34
9538;BME280;4807;48.024;11.726;2024-01-30T04:07:52;96319.06;;;-2.36;91.07
9538;BME280;4807;48.024;11.726;2024-01-30T04:11:04;96319.09;;;-2.22;90.91
9538;BME280;4807;48.024;11.726;2024-01-30T04:14:15;96317.56;;;-2.26;89.45
9538;BME280;4807;48.024;11.726;2024-01-30T04:17:24;96316.22;;;-2.47;90.22
9538;BME280;4807;48.024;11.726;2024-01-30T04:20:32;96319.94;;;-2.51;90.43
9538;BME280;4807;48.024;11.726;2024-01-30T04:23:41;96313.78;;;-2.50;90.77
9538;BME280;4807;48.024;11.726;2024-01-30T04:26:49;96306.31;;;-2.56;90.56
9538;BME280;4807;48.024;11.726;2024-01-30T04:30:00;96305.75;;;-2.61;91.31
9538;BME280;4807;48.024;11.726;2024-01-30T04:33:09;96311.16;;;-2.50;90.74
9538;BME280;4807;48.024;11.726;2024-01-30T04:36:18;96310.44;;;-2.52;91.11
9538;BME280;4807;48.024;11.726;2024-01-30T04:39:26;96312.69;;;-2.46;90.52
9538;BME280;4807;48.024;11.726;2024-01-30T04:42:35;96312.84;;;-2.49;90.66
9538;BME280;4807;48.024;11.726;2024-01-30T04:45:44;96316.38;;;-2.50;90.43
9538;BME280;4807;48.024;11.726;2024-01-30T04:48:53;96310.53;;;-2.54;91.10
9538;BME280;4807;48.024;11.726;2024-01-30T04:52:01;96318.06;;;-2.49;90.99
9538;BME280;4807;48.024;11.726;2024-01-30T04:55:10;96320.88;;;-2.52;90.87
9538;BME280;4807;48.024;11.726;2024-01-30T04:58:18;96308.31;;;-2.46;90.64
9538;BME280;4807;48.024;11.726;2024-01-30T05:01:28;96310.16;;;-2.48;90.88
9538;BME280;4807;48.024;11.726;2024-01-30T05:04:37;96313.22;;;-2.55;91.05
9538;BME280;4807;48.024;11.726;2024-01-30T05:07:47;96316.75;;;-2.56;91.04
9538;BME280;4807;48.024;11.726;2024-01-30T05:10:55;96320.28;;;-2.57;90.64
9538;BME280;4807;48.024;11.726;2024-01-30T05:14:04;96328.69;;;-2.52;90.97
9538;BME280;4807;48.024;11.726;2024-01-30T05:17:14;96322.56;;;-2.51;91.64
9538;BME280;4807;48.024;11.726;2024-01-30T05:20:22;96326.09;;;-2.52;90.81
9538;BME280;4807;48.024;11.726;2024-01-30T05:23:30;96325.16;;;-2.51;91.08
9538;BME280;4807;48.024;11.726;2024-01-30T05:26:39;96326.16;;;-2.54;91.31
9538;BME280;4807;48.024;11.726;2024-01-30T05:29:47;96327.19;;;-2.56;90.42
9538;BME280;4807;48.024;11.726;2024-01-30T05:32:56;96327.78;;;-2.51;90.96
9538;BME280;4807;48.024;11.726;2024-01-30T05:36:05;96323.97;;;-2.46;91.35
9538;BME280;4807;48.024;11.726;2024-01-30T05:39:13;96327.50;;;-2.47;90.52
9538;BME280;4807;48.024;11.726;2024-01-30T05:42:22;96334.34;;;-2.30;89.77
9538;BME280;4807;48.024;11.726;2024-01-30T05:45:34;96327.44;;;-2.31;89.70
9538;BME280;4807;48.024;11.726;2024-01-30T05:48:44;96329.81;;;-2.42;90.21
9538;BME280;4807;48.024;11.726;2024-01-30T05:51:53;96335.88;;;-2.42;90.39
9538;BME280;4807;48.024;11.726;2024-01-30T05:55:01;96338.50;;;-2.42;90.68
9538;BME280;4807;48.024;11.726;2024-01-30T05:58:10;96336.81;;;-2.43;90.00
9538;BME280;4807;48.024;11.726;2024-01-30T06:01:19;96346.69;;;-2.48;89.61
9538;BME280;4807;48.024;11.726;2024-01-30T06:04:29;96342.47;;;-2.50;90.25
9538;BME280;4807;48.024;11.726;2024-01-30T06:07:38;96348.72;;;-2.53;90.43
9538;BME280;4807;48.024;11.726;2024-01-30T06:10:46;96342.38;;;-2.49;90.13
9538;BME280;4807;48.024;11.726;2024-01-30T06:13:54;96343.63;;;-2.40;90.41
9538;BME280;4807;48.024;11.726;2024-01-30T06:17:03;96346.00;;;-2.36;90.21
9538;BME280;4807;48.024;11.726;2024-01-30T06:20:13;96352.38;;;-2.41;90.46
9538;BME280;4807;48.024;11.726;2024-01-30T06:23:22;96342.31;;;-2.47;90.03
9538;BME280;4807;48.024;11.726;2024-01-30T06:26:30;96347.75;;;-2.36;89.67
9538;BME280;4807;48.024;11.726;2024-01-30T06:29:38;96345.66;;;-2.45;89.66
9538;BME280;4807;48.024;11.726;2024-01-30T06:32:47;96350.03;;;-2.46;89.54
9538;BME280;4807;48.024;11.726;2024-01-30T06:35:58;96356.34;;;-2.50;89.67
9538;BME280;4807;48.024;11.726;2024-01-30T06:39:06;96356.25;;;-2.48;88.77
9538;BME280;4807;48.024;11.726;2024-01-30T06:42:15;96356.25;;;-2.48;89.46
9538;BME280;4807;48.024;11.726;2024-01-30T06:45:24;96354.38;;;-2.31;89.19
9538;BME280;4807;48.024;11.726;2024-01-30T06:48:32;96350.09;;;-2.32;89.74
9538;BME280;4807;48.024;11.726;2024-01-30T06:51:43;96354.00;;;-2.24;89.32
9538;BME280;4807;48.024;11.726;2024-01-30T06:54:51;96361.69;;;-2.07;88.18
9538;BME280;4807;48.024;11.726;2024-01-30T06:57:59;96355.94;;;-1.98;87.03
9538;BME280;4807;48.024;11.726;2024-01-30T07:01:08;96360.31;;;-1.99;88.00
9538;BME280;4807;48.024;11.726;2024-01-30T07:04:17;96368.00;;;-1.81;87.04
9538;BME280;4807;48.024;11.726;2024-01-30T07:07:27;96369.69;;;-1.80;87.21
9538;BME280;4807;48.024;11.726;2024-01-30T07:10:35;96372.00;;;-1.90;87.81
9538;BME280;4807;48.024;11.726;2024-01-30T07:13:44;96381.44;;;-1.87;88.31
9538;BME280;4807;48.024;11.726;2024-01-30T07:16:53;96378.16;;;-1.77;86.93
9538;BME280;4807;48.024;11.726;2024-01-30T07:20:03;96379.19;;;-1.79;87.70
9538;BME280;4807;48.024;11.726;2024-01-30T07:23:17;96375.38;;;-1.74;87.96
9538;BME280;4807;48.024;11.726;2024-01-30T07:26:27;96383.41;;;-1.63;87.40
9538;BME280;4807;48.024;11.726;2024-01-30T07:29:37;96376.03;;;-1.42;86.92
9538;BME280;4807;48.024;11.726;2024-01-30T07:32:47;96375.50;;;-1.33;87.11
9538;BME280;4807;48.024;11.726;2024-01-30T07:35:59;96384.16;;;-1.18;87.07
9538;BME280;4807;48.024;11.726;2024-01-30T07:39:10;96380.31;;;-0.98;86.29
9538;BME280;4807;48.024;11.726;2024-01-30T07:42:18;96382.84;;;-0.70;84.34
9538;BME280;4807;48.024;11.726;2024-01-30T07:45:28;96378.66;;;-0.46;83.48
9538;BME280;4807;48.024;11.726;2024-01-30T07:48:41;96386.28;;;-0.28;81.60
9538;BME280;4807;48.024;11.726;2024-01-30T07:51:50;96377.50;;;-0.15;81.73
9538;BME280;4807;48.024;11.726;2024-01-30T07:55:01;96378.81;;;0.05;81.94
9538;BME280;4807;48.024;11.726;2024-01-30T07:58:11;96376.75;;;0.23;80.74
9538;BME280;4807;48.024;11.726;2024-01-30T08:01:19;96385.34;;;0.37;81.60
9538;BME280;4807;48.024;11.726;2024-01-30T08:04:28;96379.91;;;0.66;81.33
9538;BME280;4807;48.024;11.726;2024-01-30T08:07:36;96382.81;;;0.99;78.85
9538;BME280;4807;48.024;11.726;2024-01-30T08:10:47;96380.22;;;1.36;79.50
9538;BME280;4807;48.024;11.726;2024-01-30T08:13:56;96386.88;;;1.76;77.70
9538;BME280;4807;48.024;11.726;2024-01-30T08:17:04;96383.63;;;1.97;78.01
9538;BME280;4807;48.024;11.726;2024-01-30T08:20:14;96382.03;;;2.29;73.62
9538;BME280;4807;48.024;11.726;2024-01-30T08:23:23;96386.28;;;2.54;73.74
9538;BME280;4807;48.024;11.726;2024-01-30T08:26:34;96378.66;;;2.84;73.12
9538;BME280;4807;48.024;11.726;2024-01-30T08:29:42;96377.25;;;3.02;70.82
9538;BME280;4807;48.024;11.726;2024-01-30T08:32:50;96382.13;;;3.18;72.02
9538;BME280;4807;48.024;11.726;2024-01-30T08:35:59;96380.81;;;3.35;71.00
9538;BME280;4807;48.024;11.726;2024-01-30T08:39:07;96375.66;;;3.56;69.43
9538;BME280;4807;48.024;11.726;2024-01-30T08:42:17;96375.59;;;3.67;70.25
9538;BME280;4807;48.024;11.726;2024-01-30T08:45:29;96379.97;;;3.89;67.98
9538;BME280;4807;48.024;11.726;2024-01-30T08:48:38;96375.25;;;4.03;67.83
9538;BME280;4807;48.024;11.726;2024-01-30T08:51:47;96376.22;;;4.23;67.60
9538;BME280;4807;48.024;11.726;2024-01-30T08:54:56;96379.22;;;4.30;69.38
9538;BME280;4807;48.024;11.726;2024-01-30T08:58:06;96380.41;;;4.46;70.28
9538;BME280;4807;48.024;11.726;2024-01-30T09:01:15;96377.84;;;4.56;70.03
9538;BME280;4807;48.024;11.726;2024-01-30T09:04:24;96382.88;;;4.59;72.21
9538;BME280;4807;48.024;11.726;2024-01-30T09:07:33;96387.91;;;4.62;76.13
9538;BME280;4807;48.024;11.726;2024-01-30T09:10:41;96390.72;;;4.70;76.43
9538;BME280;4807;48.024;11.726;2024-01-30T09:13:53;96393.69;;;4.77;75.86
9538;BME280;4807;48.024;11.726;2024-01-30T09:17:02;96394.84;;;4.84;79.68
9538;BME280;4807;48.024;11.726;2024-01-30T09:20:11;96391.00;;;4.97;79.16
9538;BME280;4807;48.024;11.726;2024-01-30T09:23:20;96396.47;;;5.06;80.49
9538;BME280;4807;48.024;11.726;2024-01-30T09:26:29;96392.06;;;5.16;77.87
9538;BME280;4807;48.024;11.726;2024-01-30T09:29:39;96396.81;;;5.22;79.38
9538;BME280;4807;48.024;11.726;2024-01-30T09:32:47;96393.97;;;5.44;77.63
9538;BME280;4807;48.024;11.726;2024-01-30T09:35:56;96393.75;;;5.57;75.99
9538;BME280;4807;48.024;11.726;2024-01-30T09:39:04;96401.72;;;5.66;77.05
9538;BME280;4807;48.024;11.726;2024-01-30T09:42:26;96409.94;;;5.83;76.13
9538;BME280;4807;48.024;11.726;2024-01-30T09:45:38;96418.91;;;5.91;73.75
9538;BME280;4807;48.024;11.726;2024-01-30T09:48:47;96408.47;;;6.09;72.48
9538;BME280;4807;48.024;11.726;2024-01-30T09:51:56;96412.53;;;6.32;72.04
9538;BME280;4807;48.024;11.726;2024-01-30T09:55:06;96410.72;;;6.52;68.16
9538;BME280;4807;48.024;11.726;2024-01-30T09:58:15;96404.97;;;6.66;64.81
9538;BME280;4807;48.024;11.726;2024-01-30T10:01:26;96401.16;;;6.98;61.84
9538;BME280;4807;48.024;11.726;2024-01-30T10:04:34;96399.88;;;7.11;62.86
9538;BME280;4807;48.024;11.726;2024-01-30T10:07:53;96398.84;;;7.59;60.25
9538;BME280;4807;48.024;11.726;2024-01-30T10:11:02;96388.94;;;7.61;57.88
9538;BME280;4807;48.024;11.726;2024-01-30T10:14:11;96395.19;;;7.70;57.52
9538;BME280;4807;48.024;11.726;2024-01-30T10:17:21;96389.59;;;7.90;56.51
9538;BME280;4807;48.024;11.726;2024-01-30T10:20:39;96379.63;;;8.20;53.03
9538;BME280;4807;48.024;11.726;2024-01-30T10:23:50;96379.50;;;8.39;50.80
9538;BME280;4807;48.024;11.726;2024-01-30T10:26:58;96378.03;;;8.62;49.91
9538;BME280;4807;48.024;11.726;2024-01-30T10:30:08;96373.69;;;8.79;46.89
9538;BME280;4807;48.024;11.726;2024-01-30T10:33:18;96376.75;;;8.92;47.17
9538;BME280;4807;48.024;11.726;2024-01-30T10:36:29;96375.41;;;9.14;43.47
9538;BME280;4807;48.024;11.726;2024-01-30T10:39:39;96372.38;;;9.35;44.03
9538;BME280;4807;48.024;11.726;2024-01-30T10:42:50;96362.00;;;9.57;44.52
9538;BME280;4807;48.024;11.726;2024-01-30T10:46:15;96361.44;;;9.80;44.15
9538;BME280;4807;48.024;11.726;2024-01-30T10:49:28;96357.50;;;10.08;43.65
9538;BME280;4807;48.024;11.726;2024-01-30T10:52:39;96350.25;;;10.18;45.15
9538;BME280;4807;48.024;11.726;2024-01-30T10:55:52;96347.75;;;10.33;44.45
9538;BME280;4807;48.024;11.726;2024-01-30T10:59:02;96349.25;;;10.36;44.48
9538;BME280;4807;48.024;11.726;2024-01-30T11:02:12;96339.44;;;10.44;42.05
9538;BME280;4807;48.024;11.726;2024-01-30T11:05:27;96344.09;;;10.58;42.05
9538;BME280;4807;48.024;11.726;2024-01-30T11:08:40;96332.63;;;10.58;41.62
9538;BME280;4807;48.024;11.726;2024-01-30T11:11:50;96333.28;;;10.60;42.98
9538;BME280;4807;48.024;11.726;2024-01-30T11:15:05;96330.28;;;10.55;41.51
9538;BME280;4807;48.024;11.726;2024-01-30T11:18:23;96330.78;;;10.42;41.48
9538;BME280;4807;48.024;11.726;2024-01-30T11:21:41;96323.47;;;10.44;40.86
9538;BME280;4807;48.024;11.726;2024-01-30T11:24:51;96322.28;;;10.47;41.77
9538;BME280;4807;48.024;11.726;2024-01-30T11:28:04;96314.66;;;10.52;41.39
9538;BME280;4807;48.024;11.726;2024-01-30T11:31:19;96315.47;;;10.52;41.59
9538;BME280;4807;48.024;11.726;2024-01-30T11:34:27;96317.31;;;10.44;43.88
9538;BME280;4807;48.024;11.726;2024-01-30T11:37:38;96311.81;;;10.53;43.00
9538;BME280;4807;48.024;11.726;2024-01-30T11:40:48;96307.97;;;10.56;45.25
9538;BME280;4807;48.024;11.726;2024-01-30T11:43:58;96306.00;;;10.50;46.46
9538;BME280;4807;48.024;11.726;2024-01-30T11:47:06;96310.63;;;10.56;43.43
9538;BME280;4807;48.024;11.726;2024-01-30T11:50:15;96312.47;;;10.63;46.25
9538;BME280;4807;48.024;11.726;2024-01-30T11:53:26;96308.31;;;10.77;46.29
9538;BME280;4807;48.024;11.726;2024-01-30T11:56:36;96306.25;;;10.95;42.83
9538;BME280;4807;48.024;11.726;2024-01-30T11:59:44;96294.56;;;11.04;41.43
9538;BME280;4807;48.024;11.726;2024-01-30T12:02:55;96296.59;;;11.02;42.76
9538;BME280;4807;48.024;11.726;2024-01-30T12:06:04;96289.25;;;10.96;43.69
9538;BME280;4807;48.024;11.726;2024-01-30T12:09:15;96298.94;;;10.97;45.74
9538;BME280;4807;48.024;11.726;2024-01-30T12:12:25;96286.22;;;11.16;43.14
9538;BME280;4807;48.024;11.726;2024-01-30T12:15:34;96279.19;;;11.23;40.81
9538;BME280;4807;48.024;11.726;2024-01-30T12:18:42;96284.16;;;11.34;40.41
9538;BME280;4807;48.024;11.726;2024-01-30T12:21:57;96279.09;;;11.47;39.52
9538;BME280;4807;48.024;11.726;2024-01-30T12:25:09;96277.38;;;11.54;38.71
9538;BME280;4807;48.024;11.726;2024-01-30T12:28:19;96276.94;;;11.81;40.80
9538;BME280;4807;48.024;11.726;2024-01-30T12:31:28;96278.50;;;11.99;38.52
9538;BME280;4807;48.024;11.726;2024-01-30T12:34:41;96275.66;;;12.23;39.60
9538;BME280;4807;48.024;11.726;2024-01-30T12:38:06;96272.56;;;12.34;37.93
9538;BME280;4807;48.024;11.726;2024-01-30T12:41:19;96268.06;;;12.12;38.73
9538;BME280;4807;48.024;11.726;2024-01-30T12:44:29;96261.16;;;12.17;37.44
9538;BME280;4807;48.024;11.726;2024-01-30T12:47:40;96269.06;;;12.11;37.37
9538;BME280;4807;48.024;11.726;2024-01-30T12:50:51;96264.38;;;12.13;39.64
9538;BME280;4807;48.024;11.726;2024-01-30T12:54:05;96256.59;;;12.26;38.68
9538;BME280;4807;48.024;11.726;2024-01-30T12:57:16;96263.53;;;12.35;38.74
9538;BME280;4807;48.024;11.726;2024-01-30T13:00:25;96264.47;;;12.42;38.56
9538;BME280;4807;48.024;11.726;2024-01-30T13:03:34;96259.72;;;12.52;36.72
9538;BME280;4807;48.024;11.726;2024-01-30T13:06:45;96254.66;;;12.57;37.84
9538;BME280;4807;48.024;11.726;2024-01-30T13:09:56;96251.44;;;12.47;38.30
9538;BME280;4807;48.024;11.726;2024-01-30T13:13:11;96247.47;;;12.58;35.48
9538;BME280;4807;48.024;11.726;2024-01-30T13:16:26;96242.75;;;12.45;35.49
9538;BME280;4807;48.024;11.726;2024-01-30T13:19:35;96247.50;;;12.35;36.03
9538;BME280;4807;48.024;11.726;2024-01-30T13:22:43;96257.00;;;12.38;35.48
9538;BME280;4807;48.024;11.726;2024-01-30T13:25:53;96245.66;;;12.36;35.40
9538;BME280;4807;48.024;11.726;2024-01-30T13:29:06;96253.78;;;12.42;34.99
9538;BME280;4807;48.024;11.726;2024-01-30T13:32:14;96248.63;;;12.41;34.02
9538;BME280;4807;48.024;11.726;2024-01-30T13:35:23;96250.50;;;12.40;34.34
9538;BME280;4807;48.024;11.726;2024-01-30T13:38:31;96244.75;;;12.43;35.11
9538;BME280;4807;48.024;11.726;2024-01-30T13:41:41;96245.34;;;12.53;36.09
9538;BME280;4807;48.024;11.726;2024-01-30T13:44:52;96247.19;;;12.53;34.98
9538;BME280;4807;48.024;11.726;2024-01-30T13:48:01;96248.94;;;12.60;34.45
9538;BME280;4807;48.024;11.726;2024-01-30T13:51:11;96247.38;;;12.66;34.69
9538;BME280;4807;48.024;11.726;2024-01-30T13:54:20;96252.19;;;12.71;33.92
9538;BME280;4807;48.024;11.726;2024-01-30T13:57:29;96251.91;;;12.66;34.94
9538;BME280;4807;48.024;11.726;2024-01-30T14:00:41;96254.13;;;12.62;34.23
9538;BME280;4807;48.024;11.726;2024-01-30T14:03:50;96256.75;;;12.47;35.46
9538;BME280;4807;48.024;11.726;2024-01-30T14:06:59;96248.81;;;12.39;35.45
9538;BME280;4807;48.024;11.726;2024-01-30T14:10:12;96254.50;;;12.36;36.59
9538;BME280;4807;48.024;11.726;2024-01-30T14:13:22;96247.50;;;12.35;35.69
9538;BME280;4807;48.024;11.726;2024-01-30T14:16:34;96252.84;;;12.35;35.36
9538;BME280;4807;48.024;11.726;2024-01-30T14:19:42;96251.56;;;12.31;35.78
9538;BME280;4807;48.024;11.726;2024-01-30T14:22:50;96249.59;;;12.25;37.30
9538;BME280;4807;48.024;11.726;2024-01-30T14:26:00;96260.34;;;12.17;38.35
9538;BME280;4807;48.024;11.726;2024-01-30T14:29:09;96256.53;;;12.11;40.97
9538;BME280;4807;48.024;11.726;2024-01-30T14:32:19;96259.03;;;12.13;36.46
9538;BME280;4807;48.024;11.726;2024-01-30T14:35:27;96258.38;;;12.11;38.59
9538;BME280;4807;48.024;11.726;2024-01-30T14:38:36;96260.66;;;11.99;38.83
9538;BME280;4807;48.024;11.726;2024-01-30T14:41:44;96261.53;;;11.92;38.77
9538;BME280;4807;48.024;11.726;2024-01-30T14:44:53;96262.59;;;11.82;40.41
9538;BME280;4807;48.024;11.726;2024-01-30T14:48:03;96260.81;;;11.75;39.48
9538;BME280;4807;48.024;11.726;2024-01-30T14:51:12;96263.13;;;11.70;40.32
9538;BME280;4807;48.024;11.726;2024-01-30T14:54:20;96266.50;;;11.64;39.91
9538;BME280;4807;48.024;11.726;2024-01-30T14:57:29;96267.56;;;11.55;40.45
9538;BME280;4807;48.024;11.726;2024-01-30T15:00:37;96274.41;;;11.49;39.95
9538;BME280;4807;48.024;11.726;2024-01-30T15:03:48;96271.59;;;11.51;38.73
9538;BME280;4807;48.024;11.726;2024-01-30T15:06:58;96272.94;;;11.46;40.42
9538;BME280;4807;48.024;11.726;2024-01-30T15:10:08;96278.59;;;11.43;39.92
9538;BME280;4807;48.024;11.726;2024-01-30T15:13:18;96279.13;;;11.39;39.41
9538;BME280;4807;48.024;11.726;2024-01-30T15:16:26;96275.97;;;11.35;40.42
9538;BME280;4807;48.024;11.726;2024-01-30T15:19:36;96278.09;;;11.01;43.71
9538;BME280;4807;48.024;11.726;2024-01-30T15:22:45;96295.56;;;11.03;41.72
9538;BME280;4807;48.024;11.726;2024-01-30T15:25:53;96291.63;;;10.91;42.58
9538;BME280;4807;48.024;11.726;2024-01-30T15:29:01;96298.00;;;10.50;46.46
9538;BME280;4807;48.024;11.726;2024-01-30T15:32:10;96302.59;;;10.07;48.42
9538;BME280;4807;48.024;11.726;2024-01-30T15:35:20;96313.91;;;9.93;49.30
9538;BME280;4807;48.024;11.726;2024-01-30T15:38:29;96314.91;;;9.92;48.50
9538;BME280;4807;48.024;11.726;2024-01-30T15:41:38;96319.53;;;9.82;48.28
9538;BME280;4807;48.024;11.726;2024-01-30T15:44:46;96325.53;;;9.92;47.98
9538;BME280;4807;48.024;11.726;2024-01-30T15:47:55;96326.16;;;9.70;49.71
9538;BME280;4807;48.024;11.726;2024-01-30T15:51:07;96328.69;;;9.37;50.31
9538;BME280;4807;48.024;11.726;2024-01-30T15:54:15;96330.94;;;8.90;52.12
9538;BME280;4807;48.024;11.726;2024-01-30T15:57:24;96332.78;;;8.46;54.42
9538;BME280;4807;48.024;11.726;2024-01-30T16:00:35;96340.91;;;8.09;55.64
9538;BME280;4807;48.024;11.726;2024-01-30T16:03:44;96337.19;;;7.84;55.47
9538;BME280;4807;48.024;11.726;2024-01-30T16:06:54;96341.53;;;7.58;56.85
9538;BME280;4807;48.024;11.726;2024-01-30T16:10:03;96352.22;;;7.39;57.05
9538;BME280;4807;48.024;11.726;2024-01-30T16:13:11;96357.06;;;7.16;58.11
9538;BME280;4807;48.024;11.726;2024-01-30T16:16:20;96354.91;;;6.92;59.49
9538;BME280;4807;48.024;11.726;2024-01-30T16:19:29;96355.28;;;6.60;61.28
9538;BME280;4807;48.024;11.726;2024-01-30T16:22:41;96362.41;;;6.40;61.72
9538;BME280;4807;48.024;11.726;2024-01-30T16:25:49;96365.59;;;6.25;62.30
9538;BME280;4807;48.024;11.726;2024-01-30T16:28:58;96363.66;;;6.27;61.99
9538;BME280;4807;48.024;11.726;2024-01-30T16:32:07;96372.72;;;6.24;61.89
9538;BME280;4807;48.024;11.726;2024-01-30T16:35:15;96377.72;;;5.98;62.67
9538;BME280;4807;48.024;11.726;2024-01-30T16:38:25;96378.41;;;6.10;62.32
9538;BME280;4807;48.024;11.726;2024-01-30T16:41:33;96392.03;;;5.96;63.03
9538;BME280;4807;48.024;11.726;2024-01-30T16:44:43;96392.25;;;5.73;64.81
9538;BME280;4807;48.024;11.726;2024-01-30T16:47:52;96386.28;;;5.31;65.41
9538;BME280;4807;48.024;11.726;2024-01-30T16:51:01;96396.47;;;5.06;66.73
9538;BME280;4807;48.024;11.726;2024-01-30T16:54:11;96394.44;;;4.88;67.60
9538;BME280;4807;48.024;11.726;2024-01-30T16:57:19;96393.38;;;4.70;67.97
9538;BME280;4807;48.024;11.726;2024-01-30T17:00:27;96393.47;;;4.48;69.39
9538;BME280;4807;48.024;11.726;2024-01-30T17:03:36;96397.22;;;4.45;69.43